createdAt,value
2018-03-17T00:02:26.043Z,61.20
2018-03-17T00:05:15.554Z,62.50
2018-03-17T00:07:45.696Z,64.20
2018-03-17T00:10:15.718Z,65.90
2018-03-17T00:12:46.021Z,64.40
2018-03-17T00:15:15.610Z,64.50
2018-03-17T00:17:44.896Z,63.70
2018-03-17T00:20:15.431Z,62.90
2018-03-17T00:22:49.627Z,62.30
2018-03-17T00:25:19.785Z,61.80
2018-03-17T00:27:49.878Z,62.20
2018-03-17T00:30:19.888Z,63.80
2018-03-17T00:32:49.749Z,61.50
2018-03-17T00:35:19.304Z,61.30
2018-03-17T00:37:50.310Z,63.00
2018-03-17T00:40:19.570Z,62.50
2018-03-17T00:42:49.583Z,65.10
2018-03-17T00:45:22.126Z,65.40
2018-03-17T00:47:52.512Z,64.00
2018-03-17T00:50:24.005Z,63.90
2018-03-17T00:52:55.306Z,63.80
2018-03-17T00:55:25.375Z,63.10
2018-03-17T00:57:55.740Z,63.40
2018-03-17T01:00:25.024Z,63.40
2018-03-17T01:02:54.841Z,64.30
2018-03-17T01:05:24.542Z,63.60
2018-03-17T01:07:56.029Z,63.50
2018-03-17T01:10:25.320Z,62.30
2018-03-17T01:12:55.693Z,61.50
2018-03-17T01:15:26.699Z,61.10
2018-03-17T01:17:57.866Z,61.10
2018-03-17T01:20:27.388Z,61.10
2018-03-17T01:22:58.438Z,60.40
2018-03-17T01:25:27.737Z,60.10
2018-03-17T01:28:07.251Z,61.00
2018-03-17T01:30:43.105Z,62.10
2018-03-17T01:33:15.643Z,64.90
2018-03-17T01:35:50.716Z,64.50
2018-03-17T01:41:24.809Z,63.20
2018-03-17T01:44:05.930Z,65.30
2018-03-17T01:46:43.365Z,63.20
2018-03-17T01:49:20.902Z,61.90
2018-03-17T01:51:51.447Z,61.90
2018-03-17T01:54:31.463Z,62.80
2018-03-17T01:57:02.323Z,63.50
2018-03-17T01:59:32.551Z,63.40
2018-03-17T02:02:21.827Z,62.80
2018-03-17T02:04:59.886Z,64.40
2018-03-17T02:07:31.568Z,62.80
2018-03-17T02:10:07.043Z,62.70
2018-03-17T02:12:37.408Z,63.90
2018-03-17T02:15:13.258Z,63.40
2018-03-17T02:17:44.376Z,63.30
2018-03-17T02:20:23.024Z,62.50
2018-03-17T02:22:59.364Z,61.20
2018-03-17T02:25:30.208Z,62.00
2018-03-17T02:28:01.183Z,63.30
2018-03-17T02:30:30.567Z,63.20
2018-03-17T02:32:59.871Z,62.30
2018-03-17T02:35:34.940Z,63.20
2018-03-17T02:38:04.382Z,63.20
2018-03-17T02:40:34.422Z,62.10
2018-03-17T02:43:11.788Z,61.90
2018-03-17T02:45:41.456Z,62.60
2018-03-17T02:48:13.228Z,65.00
2018-03-17T02:50:43.538Z,65.40
2018-03-17T02:53:13.025Z,64.10
2018-03-17T02:55:42.324Z,62.90
2018-03-17T02:58:12.765Z,65.10
2018-03-17T03:00:42.289Z,65.50
2018-03-17T03:03:13.858Z,64.90
2018-03-17T03:05:43.531Z,65.60
2018-03-17T03:08:13.499Z,64.90
2018-03-17T03:10:43.131Z,64.10
2018-03-17T03:13:14.126Z,66.30
2018-03-17T03:15:45.457Z,66.20
2018-03-17T03:18:18.392Z,66.10
2018-03-17T03:20:54.306Z,64.80
2018-03-17T03:23:26.885Z,65.70
2018-03-17T03:26:03.149Z,65.70
2018-03-17T03:28:34.986Z,64.30
2018-03-17T03:31:05.337Z,62.20
2018-03-17T03:33:35.528Z,63.50
2018-03-17T03:36:05.955Z,62.60
2018-03-17T03:38:36.884Z,61.40
2018-03-17T03:41:09.640Z,60.60
2018-03-17T03:43:39.601Z,61.00
2018-03-17T03:46:15.340Z,61.10
2018-03-17T03:48:48.783Z,61.10
2018-03-17T03:51:21.163Z,61.30
2018-03-17T03:53:51.236Z,60.40
2018-03-17T03:56:22.375Z,61.90
2018-03-17T03:58:53.055Z,62.50
2018-03-17T04:01:23.403Z,62.40
2018-03-17T04:03:58.837Z,62.50
2018-03-17T04:06:31.707Z,64.70
2018-03-17T04:09:01.769Z,64.60
2018-03-17T04:11:31.857Z,62.70
2018-03-17T04:14:05.258Z,62.60
2018-03-17T04:16:35.926Z,62.10
2018-03-17T04:19:06.924Z,62.10
2018-03-17T04:21:37.187Z,62.70
2018-03-17T04:24:09.586Z,62.80
2018-03-17T04:26:43.731Z,62.20
2018-03-17T04:29:15.146Z,61.80
2018-03-17T04:31:46.221Z,62.50
2018-03-17T04:34:16.586Z,62.80
2018-03-17T04:36:49.509Z,64.40
2018-03-17T04:39:22.270Z,64.40
2018-03-17T04:41:54.208Z,64.80
2018-03-17T04:44:26.947Z,63.70
2018-03-17T04:46:56.653Z,62.50
2018-03-17T04:49:27.552Z,65.10
2018-03-17T04:51:58.447Z,62.70
2018-03-17T04:54:29.487Z,62.60
2018-03-17T04:57:01.550Z,60.80
2018-03-17T04:59:32.827Z,60.20
2018-03-17T05:02:11.895Z,60.50
2018-03-17T05:04:43.942Z,60.80
2018-03-17T05:07:15.323Z,60.80
2018-03-17T05:10:10.507Z,59.80
2018-03-17T05:12:44.187Z,62.90
2018-03-17T05:15:14.314Z,62.80
2018-03-17T05:17:45.875Z,61.90
2018-03-17T05:20:17.698Z,63.90
2018-03-17T05:22:49.184Z,65.00
2018-03-17T05:25:19.623Z,64.00
2018-03-17T05:27:51.588Z,62.70
2018-03-17T05:30:22.151Z,62.50
2018-03-17T05:32:54.115Z,64.40
2018-03-17T05:35:24.404Z,63.40
2018-03-17T05:37:53.710Z,62.00
2018-03-17T05:40:24.011Z,62.50
2018-03-17T05:42:53.285Z,62.50
2018-03-17T05:45:34.927Z,61.30
2018-03-17T05:48:05.011Z,60.40
2018-03-17T05:50:35.292Z,61.50
2018-03-17T05:53:04.596Z,61.20
2018-03-17T05:55:33.883Z,61.50
2018-03-17T05:58:03.517Z,60.00
2018-03-17T06:00:32.779Z,60.30
2018-03-17T06:03:02.081Z,59.60
2018-03-17T06:05:31.491Z,59.30
2018-03-17T06:08:03.459Z,58.80
2018-03-17T06:10:34.193Z,58.70
2018-03-17T06:13:05.341Z,58.70
2018-03-17T06:15:36.558Z,59.30
2018-03-17T06:18:05.839Z,59.30
2018-03-17T06:20:35.766Z,59.50
2018-03-17T06:23:05.071Z,58.60
2018-03-17T06:25:34.353Z,57.70
2018-03-17T06:28:04.471Z,58.00
2018-03-17T06:30:36.151Z,57.00
2018-03-17T06:33:05.434Z,57.70
2018-03-17T06:35:34.789Z,57.60
2018-03-17T06:38:10.203Z,58.20
2018-03-17T06:40:40.250Z,58.70
2018-03-17T06:43:09.539Z,58.30
2018-03-17T06:45:38.964Z,58.50
2018-03-17T06:48:08.411Z,58.10
2018-03-17T06:50:39.294Z,57.30
2018-03-17T06:53:08.686Z,58.70
2018-03-17T06:55:37.994Z,58.50
2018-03-17T06:58:07.343Z,58.50
2018-03-17T07:00:36.969Z,58.90
2018-03-17T07:03:06.937Z,59.70
2018-03-17T07:05:36.367Z,58.60
2018-03-17T07:08:05.816Z,57.50
2018-03-17T07:10:37.518Z,57.20
2018-03-17T07:13:15.391Z,57.10
2018-03-17T07:15:53.514Z,56.90
2018-03-17T07:18:23.907Z,56.60
2018-03-17T07:20:59.012Z,56.60
2018-03-17T07:23:48.996Z,57.60
2018-03-17T07:26:19.171Z,57.30
2018-03-17T07:28:49.632Z,57.20
2018-03-17T07:31:18.948Z,57.20
2018-03-17T07:33:48.709Z,56.90
2018-03-17T07:36:18.056Z,56.10
2018-03-17T07:38:48.551Z,55.90
2018-03-17T07:41:17.861Z,55.70
2018-03-17T07:43:48.018Z,55.90
2018-03-17T07:46:18.155Z,58.10
2018-03-17T07:48:48.418Z,58.10
2018-03-17T07:51:17.781Z,58.00
2018-03-17T07:53:49.031Z,58.80
2018-03-17T07:56:18.348Z,58.40
2018-03-17T07:58:48.967Z,58.40
2018-03-17T08:01:18.358Z,58.50
2018-03-17T08:03:49.532Z,57.70
2018-03-17T08:06:18.802Z,57.60
2018-03-17T08:08:48.543Z,57.10
2018-03-17T08:11:18.049Z,57.20
2018-03-17T08:13:50.664Z,58.60
2018-03-17T08:16:23.353Z,58.50
2018-03-17T08:18:56.109Z,57.50
2018-03-17T08:21:28.190Z,57.60
2018-03-17T08:23:59.906Z,57.70
2018-03-17T08:26:29.532Z,57.70
2018-03-17T08:28:58.867Z,58.10
2018-03-17T08:31:28.294Z,58.20
2018-03-17T08:33:57.636Z,58.30
2018-03-17T08:36:27.048Z,58.40
2018-03-17T08:38:57.257Z,58.00
2018-03-17T08:41:27.453Z,58.70
2018-03-17T08:43:56.808Z,58.60
2018-03-17T08:46:26.374Z,59.10
2018-03-17T08:48:56.491Z,59.70
2018-03-17T08:51:25.810Z,59.70
2018-03-17T08:53:56.240Z,58.30
2018-03-17T08:56:25.535Z,58.30
2018-03-17T08:58:56.256Z,60.50
2018-03-17T09:01:26.482Z,62.10
2018-03-17T09:03:55.809Z,62.10
2018-03-17T09:06:25.704Z,64.10
2018-03-17T09:08:55.783Z,64.20
2018-03-17T09:11:27.592Z,62.20
2018-03-17T09:13:58.800Z,62.60
2018-03-17T09:16:29.729Z,62.70
2018-03-17T09:19:02.181Z,63.90
2018-03-17T09:21:33.105Z,63.90
2018-03-17T09:24:07.102Z,64.70
2018-03-17T09:26:38.295Z,64.10
2018-03-17T09:29:09.271Z,65.00
2018-03-17T09:31:43.299Z,65.50
2018-03-17T09:34:16.131Z,65.00
2018-03-17T09:36:49.894Z,67.70
2018-03-17T09:39:20.767Z,67.30
2018-03-17T09:41:51.034Z,65.90
2018-03-17T09:44:22.356Z,64.30
2018-03-17T09:46:52.130Z,64.80
2018-03-17T09:49:21.420Z,64.10
2018-03-17T09:51:51.479Z,67.20
2018-03-17T09:54:21.304Z,67.20
2018-03-17T09:56:50.629Z,69.30
2018-03-17T09:59:19.901Z,67.00
2018-03-17T10:01:50.128Z,66.10
2018-03-17T10:04:19.454Z,66.80
2018-03-17T10:06:49.406Z,66.00
2018-03-17T10:09:19.552Z,67.70
2018-03-17T10:11:49.574Z,67.60
2018-03-17T10:14:18.858Z,67.70
2018-03-17T10:16:48.508Z,66.90
2018-03-17T10:19:19.309Z,65.80
2018-03-17T10:21:49.350Z,65.80
2018-03-17T10:24:18.671Z,64.50
2018-03-17T10:26:48.613Z,62.30
2018-03-17T10:29:17.944Z,62.90
2018-03-17T10:31:47.342Z,63.70
2018-03-17T10:34:16.686Z,63.50
2018-03-17T10:36:45.975Z,63.00
2018-03-17T10:39:16.783Z,64.00
2018-03-17T10:41:46.163Z,63.90
2018-03-17T10:44:16.598Z,64.20
2018-03-17T10:46:45.926Z,65.40
2018-03-17T10:49:15.833Z,64.80
2018-03-17T10:51:45.178Z,65.70
2018-03-17T10:54:14.487Z,64.20
2018-03-17T10:59:27.918Z,64.40
2018-03-17T11:02:05.099Z,64.50
2018-03-17T11:04:34.387Z,63.00
2018-03-17T11:07:03.711Z,65.70
2018-03-17T11:09:33.006Z,64.80
2018-03-17T11:12:02.368Z,63.70
2018-03-17T11:14:32.294Z,64.30
2018-03-17T11:17:01.912Z,64.10
2018-03-17T11:19:31.244Z,64.30
2018-03-17T11:22:00.547Z,64.70
2018-03-17T11:24:30.655Z,62.70
2018-03-17T11:27:00.002Z,62.70
2018-03-17T11:29:29.643Z,65.00
2018-03-17T11:31:59.732Z,64.30
2018-03-17T11:34:29.037Z,62.10
2018-03-17T11:36:58.399Z,62.00
2018-03-17T11:39:27.715Z,63.20
2018-03-17T11:41:57.081Z,63.20
2018-03-17T11:44:26.660Z,63.90
2018-03-17T11:46:56.826Z,61.00
2018-03-17T11:49:26.596Z,61.00
2018-03-17T11:51:55.986Z,60.90
2018-03-17T11:54:26.208Z,59.70
2018-03-17T11:56:56.329Z,60.00
2018-03-17T11:59:26.894Z,60.00
2018-03-17T12:01:56.196Z,63.20
2018-03-17T12:04:25.500Z,63.00
2018-03-17T12:06:54.835Z,63.30
2018-03-17T12:09:24.094Z,63.20
2018-03-17T12:11:53.495Z,62.20
2018-03-17T12:14:22.835Z,61.80
2018-03-17T12:16:52.128Z,60.70
2018-03-17T12:19:21.712Z,60.60
2018-03-17T12:21:51.315Z,62.40
2018-03-17T12:24:20.675Z,61.10
2018-03-17T12:26:50.531Z,61.20
2018-03-17T12:29:20.245Z,61.30
2018-03-17T12:31:50.156Z,62.40
2018-03-17T12:34:19.472Z,63.80
2018-03-17T12:36:51.913Z,64.50
2018-03-17T12:39:21.278Z,61.80
2018-03-17T12:41:50.788Z,62.20
2018-03-17T12:44:20.117Z,62.10
2018-03-17T12:46:50.676Z,61.90
2018-03-17T12:49:19.995Z,60.10
2018-03-17T12:51:50.391Z,60.90
2018-03-17T12:54:19.744Z,59.90
2018-03-17T12:56:50.008Z,59.90
2018-03-17T12:59:20.766Z,59.60
2018-03-17T13:01:50.957Z,59.60
2018-03-17T13:04:23.532Z,59.60
2018-03-17T13:06:53.255Z,59.50
2018-03-17T13:09:23.535Z,59.50
2018-03-17T13:11:53.286Z,59.70
2018-03-17T13:14:28.059Z,59.00
2018-03-17T13:16:57.384Z,57.20
2018-03-17T13:19:32.671Z,57.70
2018-03-17T13:22:02.026Z,58.80
2018-03-17T13:24:31.360Z,58.70
2018-03-17T13:27:18.487Z,59.10
2018-03-17T13:29:48.582Z,59.50
2018-03-17T13:32:35.597Z,58.80
2018-03-17T13:35:04.916Z,60.60
2018-03-17T13:37:41.512Z,62.00
2018-03-17T13:43:22.952Z,60.50
2018-03-17T13:45:52.440Z,60.40
2018-03-17T13:48:21.756Z,60.00
2018-03-17T13:50:55.992Z,59.80
2018-03-17T13:53:25.429Z,61.60
2018-03-17T13:55:54.751Z,62.40
2018-03-17T14:01:04.700Z,65.80
2018-03-17T14:03:37.495Z,64.70
2018-03-17T14:06:06.819Z,63.00
2018-03-17T14:08:36.261Z,62.30
2018-03-17T14:11:05.661Z,64.50
2018-03-17T14:13:36.557Z,65.30
2018-03-17T14:16:09.279Z,64.00
2018-03-17T14:18:40.682Z,63.30
2018-03-17T14:21:12.214Z,62.40
2018-03-17T14:23:42.631Z,62.90
2018-03-17T14:26:12.823Z,62.70
2018-03-17T14:28:43.197Z,62.20
2018-03-17T14:31:16.915Z,60.50
2018-03-17T14:33:49.000Z,60.50
2018-03-17T14:36:19.126Z,60.90
2018-03-17T14:38:50.939Z,60.10
2018-03-17T14:41:23.205Z,60.40
2018-03-17T14:43:59.447Z,59.80
2018-03-17T14:46:33.553Z,59.80
2018-03-17T14:49:03.924Z,59.10
2018-03-17T14:51:34.053Z,59.10
2018-03-17T14:54:05.708Z,59.60
2018-03-17T14:56:39.359Z,58.70
2018-03-17T14:59:09.953Z,58.80
2018-03-17T15:01:41.009Z,59.60
2018-03-17T15:04:12.302Z,61.30
2018-03-17T15:06:47.867Z,60.90
2018-03-17T15:09:18.949Z,60.00
2018-03-17T15:11:50.158Z,60.40
2018-03-17T15:14:25.265Z,59.20
2018-03-17T15:16:56.597Z,59.70
2018-03-17T15:19:34.554Z,60.50
2018-03-17T15:22:06.287Z,59.80
2018-03-17T15:24:37.657Z,59.80
2018-03-17T15:27:09.540Z,59.60
2018-03-17T15:29:41.467Z,59.60
2018-03-17T15:32:14.052Z,59.30
2018-03-17T15:34:45.386Z,59.70
2018-03-17T15:37:18.954Z,59.40
2018-03-17T15:39:52.306Z,59.50
2018-03-17T15:42:23.654Z,59.50
2018-03-17T15:44:55.014Z,59.50
2018-03-17T15:47:29.044Z,59.80
2018-03-17T15:50:01.171Z,59.40
2018-03-17T15:52:36.944Z,59.30
2018-03-17T15:55:08.655Z,59.20
2018-03-17T15:57:42.007Z,59.00
2018-03-17T16:00:14.494Z,58.30
2018-03-17T16:02:45.919Z,59.10
2018-03-17T16:05:25.703Z,59.40
2018-03-17T16:07:57.559Z,59.10
2018-03-17T16:10:37.058Z,58.90
2018-03-17T16:13:10.238Z,59.20
2018-03-17T16:15:46.043Z,58.30
2018-03-17T16:18:17.954Z,58.30
2018-03-17T16:20:47.716Z,58.40
2018-03-17T16:23:20.597Z,59.10
2018-03-17T16:25:55.397Z,58.40
2018-03-17T16:28:26.821Z,58.60
2018-03-17T16:31:01.380Z,59.40
2018-03-17T16:33:33.195Z,59.30
2018-03-17T16:36:03.566Z,59.80
2018-03-17T16:38:37.055Z,59.50
2018-03-17T16:41:11.033Z,60.80
2018-03-17T16:43:44.056Z,59.70
2018-03-17T16:46:18.612Z,59.60
2018-03-17T16:48:50.341Z,59.90
2018-03-17T16:51:20.479Z,60.00
2018-03-17T16:53:52.748Z,59.50
2018-03-17T16:56:25.186Z,59.40
2018-03-17T17:01:33.151Z,58.00
2018-03-17T17:04:11.138Z,58.60
2018-03-17T17:06:41.647Z,58.40
2018-03-17T17:09:13.552Z,57.50
2018-03-17T17:11:46.899Z,58.30
2018-03-17T17:14:18.088Z,60.00
2018-03-17T17:16:51.418Z,59.80
2018-03-17T17:22:00.649Z,58.70
2018-03-17T17:24:32.429Z,59.40
2018-03-17T17:27:04.789Z,59.10
2018-03-17T17:29:36.943Z,57.90
2018-03-17T17:32:09.645Z,59.50
2018-03-17T17:34:43.222Z,59.50
2018-03-17T17:37:17.103Z,59.90
2018-03-17T17:39:47.583Z,61.10
2018-03-17T17:42:18.434Z,61.70
2018-03-17T17:44:51.173Z,60.20
2018-03-17T17:47:22.945Z,58.40
2018-03-17T17:49:54.397Z,58.60
2018-03-17T17:52:29.235Z,58.10
2018-03-17T17:55:00.008Z,57.90
2018-03-17T17:57:31.997Z,57.80
2018-03-17T18:00:04.323Z,58.00
2018-03-17T18:02:38.665Z,58.60
2018-03-17T18:05:11.793Z,58.30
2018-03-17T18:07:45.427Z,57.90
2018-03-17T18:10:22.185Z,59.80
2018-03-17T18:12:52.599Z,59.70
2018-03-17T18:15:23.457Z,59.50
2018-03-17T18:17:58.575Z,58.40
2018-03-17T18:20:28.737Z,57.50
2018-03-17T18:23:03.317Z,58.20
2018-03-17T18:25:37.085Z,58.20
2018-03-17T18:28:08.742Z,58.70
2018-03-17T18:33:17.579Z,57.80
2018-03-17T18:35:49.499Z,58.00
2018-03-17T18:38:19.717Z,59.50
2018-03-17T18:40:53.708Z,60.50
2018-03-17T18:43:24.675Z,60.70
2018-03-17T18:45:56.781Z,61.20
2018-03-17T18:48:28.372Z,62.50
2018-03-17T18:51:01.566Z,62.50
2018-03-17T18:53:32.529Z,61.70
2018-03-17T18:56:03.176Z,60.70
2018-03-17T18:58:33.867Z,59.10
2018-03-17T19:01:05.402Z,59.50
2018-03-17T19:03:37.532Z,61.10
2018-03-17T19:06:10.251Z,61.50
2018-03-17T19:08:40.403Z,61.70
2018-03-17T19:11:12.217Z,62.40
2018-03-17T19:13:44.178Z,62.40
2018-03-17T19:16:17.178Z,62.40
2018-03-17T19:18:47.873Z,60.10
2018-03-17T19:21:17.768Z,61.60
2018-03-17T19:23:47.957Z,62.50
2018-03-17T19:26:20.300Z,61.80
2018-03-17T19:28:53.975Z,61.70
2018-03-17T19:31:27.065Z,60.60
2018-03-17T19:33:58.964Z,62.70
2018-03-17T19:36:36.552Z,64.10
2018-03-17T19:39:07.663Z,61.60
2018-03-17T19:41:40.160Z,62.40
2018-03-17T19:44:13.968Z,62.40
2018-03-17T19:46:44.591Z,62.00
2018-03-17T19:49:17.115Z,61.40
2018-03-17T19:51:51.000Z,61.60
2018-03-17T19:54:23.163Z,60.00
2018-03-17T19:56:57.029Z,59.70
2018-03-17T19:59:30.486Z,58.90
2018-03-17T20:02:01.990Z,60.50
2018-03-17T20:04:35.554Z,59.90
2018-03-17T20:07:07.426Z,58.40
2018-03-17T20:09:45.070Z,58.50
2018-03-17T20:12:15.615Z,58.00
2018-03-17T20:14:49.764Z,59.80
2018-03-17T20:17:28.225Z,59.70
2018-03-17T20:20:01.132Z,58.80
2018-03-17T20:22:31.152Z,57.90
2018-03-17T20:25:05.480Z,58.40
2018-03-17T20:27:36.819Z,58.50
2018-03-17T20:30:10.943Z,57.40
2018-03-17T20:32:43.006Z,57.40
2018-03-17T20:35:13.912Z,58.30
2018-03-17T20:37:46.282Z,58.70
2018-03-17T20:40:16.326Z,58.60
2018-03-17T20:42:50.899Z,58.70
2018-03-17T20:45:22.285Z,58.50
2018-03-17T20:47:52.995Z,58.60
2018-03-17T20:50:26.719Z,58.80
2018-03-17T20:52:57.373Z,58.80
2018-03-17T20:55:31.175Z,59.00
2018-03-17T20:58:01.286Z,58.60
2018-03-17T21:00:33.118Z,58.80
2018-03-17T21:03:07.495Z,59.30
2018-03-17T21:05:42.780Z,59.20
2018-03-17T21:08:14.013Z,59.20
2018-03-17T21:10:49.615Z,58.80
2018-03-17T21:13:21.808Z,58.50
2018-03-17T21:15:51.842Z,57.80
2018-03-17T21:18:22.973Z,56.70
2018-03-17T21:20:55.950Z,58.40
2018-03-17T21:23:27.875Z,58.30
2018-03-17T21:25:59.071Z,59.30
2018-03-17T21:28:31.257Z,59.30
2018-03-17T21:31:02.571Z,60.00
2018-03-17T21:33:34.072Z,60.40
2018-03-17T21:36:04.622Z,60.20
2018-03-17T21:38:35.571Z,60.10
2018-03-17T21:41:09.504Z,58.80
2018-03-17T21:43:43.500Z,57.50
2018-03-17T21:46:16.167Z,58.70
2018-03-17T21:48:45.974Z,59.20
2018-03-17T21:51:19.478Z,58.80
2018-03-17T21:53:50.637Z,58.80
2018-03-17T21:56:21.596Z,59.30
2018-03-17T21:58:53.490Z,59.00
2018-03-17T22:01:23.843Z,59.00
2018-03-17T22:03:54.180Z,58.80
2018-03-17T22:06:24.695Z,58.80
2018-03-17T22:08:56.411Z,59.90
2018-03-17T22:11:26.545Z,59.30
2018-03-17T22:13:57.309Z,59.30
2018-03-17T22:16:28.677Z,59.70
2018-03-17T22:18:58.837Z,61.50
2018-03-17T22:21:31.838Z,60.40
2018-03-17T22:24:04.155Z,60.40
2018-03-17T22:29:49.555Z,58.20
2018-03-17T22:32:22.056Z,58.00
2018-03-17T22:34:54.177Z,58.00
2018-03-17T22:37:26.362Z,58.30
2018-03-17T22:39:59.488Z,58.90
2018-03-17T22:42:29.346Z,58.90
2018-03-17T22:45:02.683Z,57.80
2018-03-17T22:47:35.583Z,57.80
2018-03-17T22:50:06.951Z,57.20
2018-03-17T22:52:40.915Z,56.90
2018-03-17T22:55:11.927Z,56.70
2018-03-17T22:57:43.437Z,56.70
2018-03-17T23:00:14.516Z,56.70
2018-03-17T23:02:45.686Z,57.30
2018-03-17T23:05:17.445Z,57.20
2018-03-17T23:07:50.430Z,57.20
2018-03-17T23:10:25.312Z,57.70
2018-03-17T23:12:56.128Z,57.70
2018-03-17T23:15:27.029Z,58.20
2018-03-17T23:17:59.058Z,58.40
2018-03-17T23:20:34.144Z,58.90
2018-03-17T23:23:04.120Z,57.70
2018-03-17T23:25:37.690Z,58.50
2018-03-17T23:28:12.356Z,58.90
2018-03-17T23:30:43.673Z,58.60
2018-03-17T23:33:15.321Z,58.50
2018-03-17T23:35:45.683Z,58.30
2018-03-17T23:38:18.057Z,57.50
2018-03-17T23:40:49.656Z,56.40
2018-03-17T23:43:23.480Z,56.40
2018-03-17T23:45:59.591Z,56.30
2018-03-17T23:48:31.540Z,56.50
2018-03-17T23:51:05.788Z,56.60
2018-03-17T23:53:37.223Z,57.20
2018-03-17T23:56:09.987Z,57.80
2018-03-17T23:58:43.901Z,57.80
